sensor_id;sensor_type;location;lat;lon;timestamp;P1;durP1;ratioP1;P2;durP2;ratioP2
61330;SDS011;57640;52.472;-1.950;2023-05-02T00:02:29;4.38;;;2.80;;
61330;SDS011;57640;52.472;-1.950;2023-05-02T00:05:34;4.60;;;3.13;;
61330;SDS011;57640;52.472;-1.950;2023-05-02T00:08:39;3.40;;;3.05;;
61330;SDS011;57640;52.472;-1.950;2023-05-02T00:11:45;4.43;;;3.33;;
61330;SDS011;57640;52.472;-1.950;2023-05-02T00:14:53;4.03;;;3.20;;
61330;SDS011;57640;52.472;-1.950;2023-05-02T00:17:58;3.38;;;3.03;;
61330;SDS011;57640;52.472;-1.950;2023-05-02T00:21:05;3.90;;;2.85;;
61330;SDS011;57640;52.472;-1.950;2023-05-02T00:24:11;3.63;;;2.88;;
61330;SDS011;57640;52.472;-1.950;2023-05-02T00:27:16;3.33;;;2.63;;
61330;SDS011;57640;52.472;-1.950;2023-05-02T00:30:24;3.30;;;3.00;;
61330;SDS011;57640;52.472;-1.950;2023-05-02T00:33:30;3.80;;;3.15;;
61330;SDS011;57640;52.472;-1.950;2023-05-02T00:36:35;3.10;;;2.70;;
61330;SDS011;57640;52.472;-1.950;2023-05-02T00:39:40;4.03;;;2.90;;
61330;SDS011;57640;52.472;-1.950;2023-05-02T00:42:46;3.88;;;2.90;;
61330;SDS011;57640;52.472;-1.950;2023-05-02T00:45:54;3.28;;;2.92;;
61330;SDS011;57640;52.472;-1.950;2023-05-02T00:48:59;3.75;;;2.75;;
61330;SDS011;57640;52.472;-1.950;2023-05-02T00:52:05;3.75;;;2.97;;
61330;SDS011;57640;52.472;-1.950;2023-05-02T00:55:10;3.22;;;2.70;;
61330;SDS011;57640;52.472;-1.950;2023-05-02T00:58:16;3.80;;;2.95;;
61330;SDS011;57640;52.472;-1.950;2023-05-02T01:01:28;4.20;;;2.88;;
61330;SDS011;57640;52.472;-1.950;2023-05-02T01:04:38;3.45;;;2.95;;
61330;SDS011;57640;52.472;-1.950;2023-05-02T01:07:53;3.33;;;2.90;;
61330;SDS011;57640;52.472;-1.950;2023-05-02T01:11:02;3.40;;;2.78;;
61330;SDS011;57640;52.472;-1.950;2023-05-02T01:14:09;2.90;;;2.60;;
61330;SDS011;57640;52.472;-1.950;2023-05-02T01:17:18;3.10;;;2.47;;
61330;SDS011;57640;52.472;-1.950;2023-05-02T01:20:25;3.22;;;2.60;;
61330;SDS011;57640;52.472;-1.950;2023-05-02T01:23:40;3.33;;;2.60;;
61330;SDS011;57640;52.472;-1.950;2023-05-02T01:26:50;3.28;;;2.90;;
61330;SDS011;57640;52.472;-1.950;2023-05-02T01:29:59;3.08;;;2.47;;
61330;SDS011;57640;52.472;-1.950;2023-05-02T01:33:06;2.80;;;2.40;;
61330;SDS011;57640;52.472;-1.950;2023-05-02T01:36:13;2.80;;;2.40;;
61330;SDS011;57640;52.472;-1.950;2023-05-02T01:39:20;2.92;;;2.47;;
61330;SDS011;57640;52.472;-1.950;2023-05-02T01:42:26;2.92;;;2.30;;
61330;SDS011;57640;52.472;-1.950;2023-05-02T01:45:35;3.28;;;2.47;;
61330;SDS011;57640;52.472;-1.950;2023-05-02T01:48:43;3.92;;;2.28;;
61330;SDS011;57640;52.472;-1.950;2023-05-02T01:51:50;3.20;;;2.28;;
61330;SDS011;57640;52.472;-1.950;2023-05-02T01:54:56;2.45;;;2.25;;
61330;SDS011;57640;52.472;-1.950;2023-05-02T01:58:03;3.08;;;2.25;;
61330;SDS011;57640;52.472;-1.950;2023-05-02T02:01:11;3.05;;;2.22;;
61330;SDS011;57640;52.472;-1.950;2023-05-02T02:04:18;3.00;;;2.13;;
61330;SDS011;57640;52.472;-1.950;2023-05-02T02:07:23;3.53;;;2.30;;
61330;SDS011;57640;52.472;-1.950;2023-05-02T02:10:30;3.15;;;2.38;;
61330;SDS011;57640;52.472;-1.950;2023-05-02T02:13:42;3.08;;;2.17;;
61330;SDS011;57640;52.472;-1.950;2023-05-02T02:16:52;2.78;;;2.10;;
61330;SDS011;57640;52.472;-1.950;2023-05-02T02:19:59;2.78;;;2.08;;
61330;SDS011;57640;52.472;-1.950;2023-05-02T02:23:05;2.88;;;2.13;;
61330;SDS011;57640;52.472;-1.950;2023-05-02T02:26:11;2.92;;;2.05;;
61330;SDS011;57640;52.472;-1.950;2023-05-02T02:29:17;2.83;;;2.00;;
61330;SDS011;57640;52.472;-1.950;2023-05-02T02:32:25;2.55;;;1.88;;
61330;SDS011;57640;52.472;-1.950;2023-05-02T02:35:33;3.10;;;2.20;;
61330;SDS011;57640;52.472;-1.950;2023-05-02T02:38:41;2.90;;;2.00;;
61330;SDS011;57640;52.472;-1.950;2023-05-02T02:41:48;2.58;;;2.00;;
61330;SDS011;57640;52.472;-1.950;2023-05-02T02:44:59;2.17;;;1.90;;
61330;SDS011;57640;52.472;-1.950;2023-05-02T02:48:13;3.42;;;2.03;;
61330;SDS011;57640;52.472;-1.950;2023-05-02T02:51:22;3.28;;;2.00;;
61330;SDS011;57640;52.472;-1.950;2023-05-02T02:57:36;2.47;;;1.90;;
61330;SDS011;57640;52.472;-1.950;2023-05-02T03:03:51;2.38;;;1.98;;
61330;SDS011;57640;52.472;-1.950;2023-05-02T03:06:57;2.28;;;1.80;;
61330;SDS011;57640;52.472;-1.950;2023-05-02T03:10:04;2.67;;;1.90;;
61330;SDS011;57640;52.472;-1.950;2023-05-02T03:13:10;2.75;;;1.88;;
61330;SDS011;57640;52.472;-1.950;2023-05-02T03:19:38;3.90;;;2.15;;
61330;SDS011;57640;52.472;-1.950;2023-05-02T03:22:44;2.15;;;1.80;;
61330;SDS011;57640;52.472;-1.950;2023-05-02T03:25:49;2.60;;;2.08;;
61330;SDS011;57640;52.472;-1.950;2023-05-02T03:28:55;3.22;;;2.10;;
61330;SDS011;57640;52.472;-1.950;2023-05-02T03:32:00;3.17;;;2.20;;
61330;SDS011;57640;52.472;-1.950;2023-05-02T03:35:09;2.42;;;2.03;;
61330;SDS011;57640;52.472;-1.950;2023-05-02T03:38:14;3.10;;;2.00;;
61330;SDS011;57640;52.472;-1.950;2023-05-02T03:41:20;2.75;;;2.25;;
61330;SDS011;57640;52.472;-1.950;2023-05-02T03:44:26;4.93;;;2.40;;
61330;SDS011;57640;52.472;-1.950;2023-05-02T03:47:31;2.33;;;2.05;;
61330;SDS011;57640;52.472;-1.950;2023-05-02T03:50:39;3.38;;;2.22;;
61330;SDS011;57640;52.472;-1.950;2023-05-02T03:53:45;2.90;;;2.10;;
61330;SDS011;57640;52.472;-1.950;2023-05-02T03:56:50;3.17;;;2.08;;
61330;SDS011;57640;52.472;-1.950;2023-05-02T03:59:57;2.80;;;2.30;;
61330;SDS011;57640;52.472;-1.950;2023-05-02T04:03:02;3.92;;;2.05;;
61330;SDS011;57640;52.472;-1.950;2023-05-02T04:06:10;2.67;;;2.15;;
61330;SDS011;57640;52.472;-1.950;2023-05-02T04:09:16;2.88;;;2.20;;
61330;SDS011;57640;52.472;-1.950;2023-05-02T04:12:26;2.45;;;2.00;;
61330;SDS011;57640;52.472;-1.950;2023-05-02T04:15:32;3.55;;;2.10;;
61330;SDS011;57640;52.472;-1.950;2023-05-02T04:18:37;3.25;;;2.30;;
61330;SDS011;57640;52.472;-1.950;2023-05-02T04:21:45;3.35;;;2.30;;
61330;SDS011;57640;52.472;-1.950;2023-05-02T04:24:50;3.65;;;2.45;;
61330;SDS011;57640;52.472;-1.950;2023-05-02T04:27:56;3.85;;;2.30;;
61330;SDS011;57640;52.472;-1.950;2023-05-02T04:31:02;3.92;;;2.60;;
61330;SDS011;57640;52.472;-1.950;2023-05-02T04:34:08;4.13;;;2.30;;
61330;SDS011;57640;52.472;-1.950;2023-05-02T04:37:16;3.50;;;2.47;;
61330;SDS011;57640;52.472;-1.950;2023-05-02T04:40:22;2.95;;;2.40;;
61330;SDS011;57640;52.472;-1.950;2023-05-02T04:43:27;3.00;;;2.70;;
61330;SDS011;57640;52.472;-1.950;2023-05-02T04:46:32;4.30;;;2.55;;
61330;SDS011;57640;52.472;-1.950;2023-05-02T04:49:38;4.95;;;2.70;;
61330;SDS011;57640;52.472;-1.950;2023-05-02T04:52:46;3.40;;;2.60;;
61330;SDS011;57640;52.472;-1.950;2023-05-02T04:55:52;3.72;;;2.60;;
61330;SDS011;57640;52.472;-1.950;2023-05-02T04:58:57;4.65;;;3.00;;
61330;SDS011;57640;52.472;-1.950;2023-05-02T05:02:03;4.63;;;3.00;;
61330;SDS011;57640;52.472;-1.950;2023-05-02T05:05:09;4.43;;;3.00;;
61330;SDS011;57640;52.472;-1.950;2023-05-02T05:08:17;4.38;;;2.90;;
61330;SDS011;57640;52.472;-1.950;2023-05-02T05:11:22;3.25;;;2.65;;
61330;SDS011;57640;52.472;-1.950;2023-05-02T05:14:27;4.15;;;2.60;;
61330;SDS011;57640;52.472;-1.950;2023-05-02T05:17:33;4.25;;;2.67;;
61330;SDS011;57640;52.472;-1.950;2023-05-02T05:20:38;4.18;;;3.00;;
61330;SDS011;57640;52.472;-1.950;2023-05-02T05:23:47;3.25;;;2.50;;
61330;SDS011;57640;52.472;-1.950;2023-05-02T05:26:52;4.00;;;2.72;;
61330;SDS011;57640;52.472;-1.950;2023-05-02T05:29:57;4.82;;;2.92;;
61330;SDS011;57640;52.472;-1.950;2023-05-02T05:33:03;4.03;;;2.90;;
61330;SDS011;57640;52.472;-1.950;2023-05-02T05:36:09;3.95;;;2.90;;
61330;SDS011;57640;52.472;-1.950;2023-05-02T05:39:18;3.58;;;2.60;;
61330;SDS011;57640;52.472;-1.950;2023-05-02T05:42:23;4.20;;;2.80;;
61330;SDS011;57640;52.472;-1.950;2023-05-02T05:45:29;3.97;;;2.60;;
61330;SDS011;57640;52.472;-1.950;2023-05-02T05:48:34;4.80;;;2.95;;
61330;SDS011;57640;52.472;-1.950;2023-05-02T05:51:39;3.70;;;2.67;;
61330;SDS011;57640;52.472;-1.950;2023-05-02T05:54:47;3.58;;;2.60;;
61330;SDS011;57640;52.472;-1.950;2023-05-02T05:57:53;3.10;;;2.50;;
61330;SDS011;57640;52.472;-1.950;2023-05-02T06:00:58;2.90;;;2.40;;
61330;SDS011;57640;52.472;-1.950;2023-05-02T06:04:03;2.65;;;2.35;;
61330;SDS011;57640;52.472;-1.950;2023-05-02T06:07:09;3.28;;;2.30;;
61330;SDS011;57640;52.472;-1.950;2023-05-02T06:10:17;4.18;;;2.58;;
61330;SDS011;57640;52.472;-1.950;2023-05-02T06:13:22;2.35;;;2.05;;
61330;SDS011;57640;52.472;-1.950;2023-05-02T06:16:28;3.85;;;2.58;;
61330;SDS011;57640;52.472;-1.950;2023-05-02T06:19:33;2.83;;;2.17;;
61330;SDS011;57640;52.472;-1.950;2023-05-02T06:22:38;2.80;;;2.13;;
61330;SDS011;57640;52.472;-1.950;2023-05-02T06:25:46;3.58;;;2.10;;
61330;SDS011;57640;52.472;-1.950;2023-05-02T06:28:53;3.10;;;2.05;;
61330;SDS011;57640;52.472;-1.950;2023-05-02T06:31:58;2.40;;;2.08;;
61330;SDS011;57640;52.472;-1.950;2023-05-02T06:35:05;3.47;;;2.03;;
61330;SDS011;57640;52.472;-1.950;2023-05-02T06:38:11;2.72;;;2.00;;
61330;SDS011;57640;52.472;-1.950;2023-05-02T06:41:22;3.95;;;2.35;;
61330;SDS011;57640;52.472;-1.950;2023-05-02T06:44:29;3.15;;;2.00;;
61330;SDS011;57640;52.472;-1.950;2023-05-02T06:47:35;3.20;;;2.30;;
61330;SDS011;57640;52.472;-1.950;2023-05-02T06:50:40;3.38;;;2.20;;
61330;SDS011;57640;52.472;-1.950;2023-05-02T06:53:45;4.05;;;2.20;;
61330;SDS011;57640;52.472;-1.950;2023-05-02T06:56:53;2.95;;;2.30;;
61330;SDS011;57640;52.472;-1.950;2023-05-02T06:59:59;4.30;;;2.55;;
61330;SDS011;57640;52.472;-1.950;2023-05-02T07:03:06;3.42;;;2.00;;
61330;SDS011;57640;52.472;-1.950;2023-05-02T07:06:12;3.42;;;2.08;;
61330;SDS011;57640;52.472;-1.950;2023-05-02T07:09:17;3.40;;;2.20;;
61330;SDS011;57640;52.472;-1.950;2023-05-02T07:12:25;2.55;;;2.05;;
61330;SDS011;57640;52.472;-1.950;2023-05-02T07:15:31;3.13;;;2.10;;
61330;SDS011;57640;52.472;-1.950;2023-05-02T07:18:36;3.60;;;2.13;;
61330;SDS011;57640;52.472;-1.950;2023-05-02T07:21:41;3.10;;;2.30;;
61330;SDS011;57640;52.472;-1.950;2023-05-02T07:24:47;3.90;;;2.47;;
61330;SDS011;57640;52.472;-1.950;2023-05-02T07:27:55;3.10;;;2.22;;
61330;SDS011;57640;52.472;-1.950;2023-05-02T07:31:00;2.55;;;2.28;;
61330;SDS011;57640;52.472;-1.950;2023-05-02T07:34:05;3.80;;;2.15;;
61330;SDS011;57640;52.472;-1.950;2023-05-02T07:37:11;3.95;;;2.38;;
61330;SDS011;57640;52.472;-1.950;2023-05-02T07:40:16;3.25;;;2.10;;
61330;SDS011;57640;52.472;-1.950;2023-05-02T07:43:25;4.18;;;2.42;;
61330;SDS011;57640;52.472;-1.950;2023-05-02T07:46:30;4.80;;;2.30;;
61330;SDS011;57640;52.472;-1.950;2023-05-02T07:49:35;2.83;;;2.10;;
61330;SDS011;57640;52.472;-1.950;2023-05-02T07:52:41;2.70;;;2.13;;
61330;SDS011;57640;52.472;-1.950;2023-05-02T07:55:46;3.05;;;2.10;;
61330;SDS011;57640;52.472;-1.950;2023-05-02T07:58:54;3.58;;;2.10;;
61330;SDS011;57640;52.472;-1.950;2023-05-02T08:01:59;4.80;;;2.58;;
61330;SDS011;57640;52.472;-1.950;2023-05-02T08:05:05;3.83;;;2.28;;
61330;SDS011;57640;52.472;-1.950;2023-05-02T08:08:11;5.15;;;2.42;;
61330;SDS011;57640;52.472;-1.950;2023-05-02T08:11:16;3.92;;;2.17;;
61330;SDS011;57640;52.472;-1.950;2023-05-02T08:14:25;4.72;;;2.38;;
61330;SDS011;57640;52.472;-1.950;2023-05-02T08:17:31;3.17;;;2.20;;
61330;SDS011;57640;52.472;-1.950;2023-05-02T08:20:36;3.70;;;2.72;;
61330;SDS011;57640;52.472;-1.950;2023-05-02T08:23:42;3.92;;;2.38;;
61330;SDS011;57640;52.472;-1.950;2023-05-02T08:26:47;3.25;;;2.20;;
61330;SDS011;57640;52.472;-1.950;2023-05-02T08:29:55;3.13;;;2.40;;
61330;SDS011;57640;52.472;-1.950;2023-05-02T08:33:00;2.50;;;2.30;;
61330;SDS011;57640;52.472;-1.950;2023-05-02T08:36:09;3.95;;;2.70;;
61330;SDS011;57640;52.472;-1.950;2023-05-02T08:39:14;4.13;;;2.42;;
61330;SDS011;57640;52.472;-1.950;2023-05-02T08:42:20;2.58;;;2.22;;
61330;SDS011;57640;52.472;-1.950;2023-05-02T08:45:29;3.17;;;2.28;;
61330;SDS011;57640;52.472;-1.950;2023-05-02T08:48:39;3.45;;;2.53;;
61330;SDS011;57640;52.472;-1.950;2023-05-02T08:51:44;3.25;;;2.30;;
61330;SDS011;57640;52.472;-1.950;2023-05-02T08:54:50;3.28;;;2.28;;
61330;SDS011;57640;52.472;-1.950;2023-05-02T08:57:56;5.43;;;2.25;;
61330;SDS011;57640;52.472;-1.950;2023-05-02T09:01:08;2.70;;;2.10;;
61330;SDS011;57640;52.472;-1.950;2023-05-02T09:04:13;2.88;;;2.20;;
61330;SDS011;57640;52.472;-1.950;2023-05-02T09:07:19;2.85;;;2.22;;
61330;SDS011;57640;52.472;-1.950;2023-05-02T09:10:24;2.58;;;2.00;;
61330;SDS011;57640;52.472;-1.950;2023-05-02T09:13:33;3.50;;;2.00;;
61330;SDS011;57640;52.472;-1.950;2023-05-02T09:16:42;2.92;;;2.13;;
61330;SDS011;57640;52.472;-1.950;2023-05-02T09:19:58;2.65;;;2.00;;
61330;SDS011;57640;52.472;-1.950;2023-05-02T09:23:04;3.25;;;2.13;;
61330;SDS011;57640;52.472;-1.950;2023-05-02T09:26:10;3.15;;;2.05;;
61330;SDS011;57640;52.472;-1.950;2023-05-02T09:29:16;3.80;;;2.35;;
61330;SDS011;57640;52.472;-1.950;2023-05-02T09:32:28;2.65;;;2.03;;
61330;SDS011;57640;52.472;-1.950;2023-05-02T09:35:52;3.95;;;2.00;;
61330;SDS011;57640;52.472;-1.950;2023-05-02T09:38:57;3.42;;;2.08;;
61330;SDS011;57640;52.472;-1.950;2023-05-02T09:42:12;3.03;;;1.95;;
61330;SDS011;57640;52.472;-1.950;2023-05-02T09:48:29;2.65;;;1.90;;
61330;SDS011;57640;52.472;-1.950;2023-05-02T09:51:34;2.90;;;1.80;;
61330;SDS011;57640;52.472;-1.950;2023-05-02T09:54:40;4.05;;;2.03;;
61330;SDS011;57640;52.472;-1.950;2023-05-02T09:57:47;3.05;;;1.98;;
61330;SDS011;57640;52.472;-1.950;2023-05-02T10:00:52;3.13;;;2.10;;
61330;SDS011;57640;52.472;-1.950;2023-05-02T10:04:00;2.58;;;2.00;;
61330;SDS011;57640;52.472;-1.950;2023-05-02T10:07:06;3.53;;;1.90;;
61330;SDS011;57640;52.472;-1.950;2023-05-02T10:10:13;2.72;;;1.95;;
61330;SDS011;57640;52.472;-1.950;2023-05-02T10:13:21;4.60;;;2.00;;
61330;SDS011;57640;52.472;-1.950;2023-05-02T10:16:28;3.40;;;2.50;;
61330;SDS011;57640;52.472;-1.950;2023-05-02T10:19:44;5.07;;;2.40;;
61330;SDS011;57640;52.472;-1.950;2023-05-02T10:22:55;2.42;;;2.17;;
61330;SDS011;57640;52.472;-1.950;2023-05-02T10:26:02;3.50;;;2.30;;
61330;SDS011;57640;52.472;-1.950;2023-05-02T10:29:08;4.70;;;2.50;;
61330;SDS011;57640;52.472;-1.950;2023-05-02T10:32:16;3.97;;;2.22;;
61330;SDS011;57640;52.472;-1.950;2023-05-02T10:38:30;4.00;;;2.75;;
61330;SDS011;57640;52.472;-1.950;2023-05-02T10:41:36;3.28;;;2.20;;
61330;SDS011;57640;52.472;-1.950;2023-05-02T10:44:42;4.22;;;2.30;;
61330;SDS011;57640;52.472;-1.950;2023-05-02T10:47:48;4.50;;;2.60;;
61330;SDS011;57640;52.472;-1.950;2023-05-02T10:50:54;5.55;;;3.08;;
61330;SDS011;57640;52.472;-1.950;2023-05-02T10:54:19;3.60;;;2.88;;
61330;SDS011;57640;52.472;-1.950;2023-05-02T10:57:25;4.63;;;2.85;;
61330;SDS011;57640;52.472;-1.950;2023-05-02T11:00:30;3.25;;;2.60;;
61330;SDS011;57640;52.472;-1.950;2023-05-02T11:10:26;3.47;;;2.20;;
61330;SDS011;57640;52.472;-1.950;2023-05-02T11:17:05;4.25;;;2.60;;
61330;SDS011;57640;52.472;-1.950;2023-05-02T11:23:33;3.00;;;1.98;;
61330;SDS011;57640;52.472;-1.950;2023-05-02T11:26:41;3.50;;;2.30;;
61330;SDS011;57640;52.472;-1.950;2023-05-02T11:29:53;2.90;;;2.10;;
61330;SDS011;57640;52.472;-1.950;2023-05-02T11:33:14;3.55;;;2.20;;
61330;SDS011;57640;52.472;-1.950;2023-05-02T11:36:28;2.95;;;2.15;;
61330;SDS011;57640;52.472;-1.950;2023-05-02T11:39:34;3.50;;;2.22;;
61330;SDS011;57640;52.472;-1.950;2023-05-02T11:42:42;3.05;;;2.25;;
61330;SDS011;57640;52.472;-1.950;2023-05-02T11:45:47;2.53;;;2.05;;
61330;SDS011;57640;52.472;-1.950;2023-05-02T11:48:53;3.00;;;2.00;;
61330;SDS011;57640;52.472;-1.950;2023-05-02T11:51:59;2.63;;;2.15;;
61330;SDS011;57640;52.472;-1.950;2023-05-02T11:55:05;3.40;;;2.20;;
61330;SDS011;57640;52.472;-1.950;2023-05-02T11:58:14;3.15;;;2.42;;
61330;SDS011;57640;52.472;-1.950;2023-05-02T12:04:25;3.38;;;2.40;;
61330;SDS011;57640;52.472;-1.950;2023-05-02T12:07:34;3.25;;;2.50;;
61330;SDS011;57640;52.472;-1.950;2023-05-02T12:10:39;5.38;;;2.60;;
61330;SDS011;57640;52.472;-1.950;2023-05-02T12:13:48;3.50;;;2.50;;
61330;SDS011;57640;52.472;-1.950;2023-05-02T12:16:53;3.85;;;2.55;;
61330;SDS011;57640;52.472;-1.950;2023-05-02T12:19:59;3.10;;;2.28;;
61330;SDS011;57640;52.472;-1.950;2023-05-02T12:23:05;3.20;;;2.25;;
61330;SDS011;57640;52.472;-1.950;2023-05-02T12:26:18;6.15;;;3.10;;
61330;SDS011;57640;52.472;-1.950;2023-05-02T12:29:38;2.92;;;2.28;;
61330;SDS011;57640;52.472;-1.950;2023-05-02T12:32:44;4.47;;;2.30;;
61330;SDS011;57640;52.472;-1.950;2023-05-02T12:35:49;4.82;;;3.05;;
61330;SDS011;57640;52.472;-1.950;2023-05-02T12:38:56;3.15;;;2.20;;
61330;SDS011;57640;52.472;-1.950;2023-05-02T12:42:07;2.70;;;2.15;;
61330;SDS011;57640;52.472;-1.950;2023-05-02T12:45:18;3.15;;;2.35;;
61330;SDS011;57640;52.472;-1.950;2023-05-02T12:48:24;4.03;;;2.80;;
61330;SDS011;57640;52.472;-1.950;2023-05-02T12:51:29;3.55;;;2.92;;
61330;SDS011;57640;52.472;-1.950;2023-05-02T12:54:35;5.13;;;2.40;;
61330;SDS011;57640;52.472;-1.950;2023-05-02T12:57:41;4.05;;;2.45;;
61330;SDS011;57640;52.472;-1.950;2023-05-02T13:00:49;3.03;;;2.40;;
61330;SDS011;57640;52.472;-1.950;2023-05-02T13:03:54;4.18;;;2.42;;
61330;SDS011;57640;52.472;-1.950;2023-05-02T13:06:59;3.40;;;2.40;;
61330;SDS011;57640;52.472;-1.950;2023-05-02T13:10:05;3.38;;;2.50;;
61330;SDS011;57640;52.472;-1.950;2023-05-02T13:13:11;4.55;;;2.42;;
61330;SDS011;57640;52.472;-1.950;2023-05-02T13:16:19;4.30;;;3.00;;
61330;SDS011;57640;52.472;-1.950;2023-05-02T13:19:25;4.15;;;2.75;;
61330;SDS011;57640;52.472;-1.950;2023-05-02T13:22:32;4.32;;;2.92;;
61330;SDS011;57640;52.472;-1.950;2023-05-02T13:25:38;3.75;;;2.97;;
61330;SDS011;57640;52.472;-1.950;2023-05-02T13:28:43;4.03;;;2.80;;
61330;SDS011;57640;52.472;-1.950;2023-05-02T13:31:51;4.07;;;2.70;;
61330;SDS011;57640;52.472;-1.950;2023-05-02T13:34:57;3.75;;;2.80;;
61330;SDS011;57640;52.472;-1.950;2023-05-02T13:38:02;4.32;;;3.33;;
61330;SDS011;57640;52.472;-1.950;2023-05-02T13:41:08;3.35;;;3.05;;
61330;SDS011;57640;52.472;-1.950;2023-05-02T13:44:13;3.47;;;2.83;;
61330;SDS011;57640;52.472;-1.950;2023-05-02T13:47:21;3.78;;;2.88;;
61330;SDS011;57640;52.472;-1.950;2023-05-02T13:50:26;4.45;;;2.88;;
61330;SDS011;57640;52.472;-1.950;2023-05-02T13:53:32;4.55;;;3.03;;
61330;SDS011;57640;52.472;-1.950;2023-05-02T13:56:37;3.80;;;2.50;;
61330;SDS011;57640;52.472;-1.950;2023-05-02T13:59:43;3.83;;;2.90;;
61330;SDS011;57640;52.472;-1.950;2023-05-02T14:02:51;3.75;;;3.05;;
61330;SDS011;57640;52.472;-1.950;2023-05-02T14:05:56;4.68;;;3.15;;
61330;SDS011;57640;52.472;-1.950;2023-05-02T14:09:02;3.67;;;2.30;;
61330;SDS011;57640;52.472;-1.950;2023-05-02T14:12:09;3.22;;;2.47;;
61330;SDS011;57640;52.472;-1.950;2023-05-02T14:15:14;3.85;;;2.72;;
61330;SDS011;57640;52.472;-1.950;2023-05-02T14:18:22;3.88;;;2.97;;
61330;SDS011;57640;52.472;-1.950;2023-05-02T14:21:27;3.85;;;2.90;;
61330;SDS011;57640;52.472;-1.950;2023-05-02T14:24:33;5.38;;;3.10;;
61330;SDS011;57640;52.472;-1.950;2023-05-02T14:27:38;6.05;;;3.10;;
61330;SDS011;57640;52.472;-1.950;2023-05-02T14:30:43;4.97;;;3.20;;
61330;SDS011;57640;52.472;-1.950;2023-05-02T14:33:52;5.43;;;3.58;;
61330;SDS011;57640;52.472;-1.950;2023-05-02T14:36:57;5.45;;;2.90;;
61330;SDS011;57640;52.472;-1.950;2023-05-02T14:40:03;4.05;;;3.03;;
61330;SDS011;57640;52.472;-1.950;2023-05-02T14:43:09;3.58;;;2.97;;
61330;SDS011;57640;52.472;-1.950;2023-05-02T14:46:15;4.97;;;2.58;;
61330;SDS011;57640;52.472;-1.950;2023-05-02T14:49:23;5.07;;;2.85;;
61330;SDS011;57640;52.472;-1.950;2023-05-02T14:52:28;3.88;;;3.05;;
61330;SDS011;57640;52.472;-1.950;2023-05-02T14:55:37;2.80;;;2.40;;
61330;SDS011;57640;52.472;-1.950;2023-05-02T15:01:47;4.70;;;2.42;;
61330;SDS011;57640;52.472;-1.950;2023-05-02T15:04:57;4.68;;;3.38;;
61330;SDS011;57640;52.472;-1.950;2023-05-02T15:08:03;5.35;;;3.90;;
61330;SDS011;57640;52.472;-1.950;2023-05-02T15:11:08;5.20;;;2.88;;
61330;SDS011;57640;52.472;-1.950;2023-05-02T15:14:14;4.05;;;3.10;;
61330;SDS011;57640;52.472;-1.950;2023-05-02T15:17:19;3.75;;;2.88;;
61330;SDS011;57640;52.472;-1.950;2023-05-02T15:20:30;4.13;;;2.33;;
61330;SDS011;57640;52.472;-1.950;2023-05-02T15:23:36;3.72;;;2.10;;
61330;SDS011;57640;52.472;-1.950;2023-05-02T15:26:41;3.80;;;2.58;;
61330;SDS011;57640;52.472;-1.950;2023-05-02T15:29:46;5.15;;;2.50;;
61330;SDS011;57640;52.472;-1.950;2023-05-02T15:32:52;3.28;;;2.45;;
61330;SDS011;57640;52.472;-1.950;2023-05-02T15:36:00;2.67;;;2.40;;
61330;SDS011;57640;52.472;-1.950;2023-05-02T15:39:05;2.90;;;2.55;;
61330;SDS011;57640;52.472;-1.950;2023-05-02T15:42:10;3.97;;;2.40;;
61330;SDS011;57640;52.472;-1.950;2023-05-02T15:45:16;5.20;;;2.80;;
61330;SDS011;57640;52.472;-1.950;2023-05-02T15:48:21;2.88;;;2.30;;
61330;SDS011;57640;52.472;-1.950;2023-05-02T15:51:29;2.95;;;2.25;;
61330;SDS011;57640;52.472;-1.950;2023-05-02T15:54:35;3.08;;;2.30;;
61330;SDS011;57640;52.472;-1.950;2023-05-02T15:57:40;2.97;;;2.20;;
61330;SDS011;57640;52.472;-1.950;2023-05-02T16:00:46;3.58;;;2.40;;
61330;SDS011;57640;52.472;-1.950;2023-05-02T16:03:55;3.25;;;2.53;;
61330;SDS011;57640;52.472;-1.950;2023-05-02T16:07:03;2.55;;;2.30;;
61330;SDS011;57640;52.472;-1.950;2023-05-02T16:10:09;5.10;;;2.45;;
61330;SDS011;57640;52.472;-1.950;2023-05-02T16:13:14;3.50;;;2.60;;
61330;SDS011;57640;52.472;-1.950;2023-05-02T16:16:19;5.25;;;2.80;;
61330;SDS011;57640;52.472;-1.950;2023-05-02T16:19:25;3.25;;;2.60;;
61330;SDS011;57640;52.472;-1.950;2023-05-02T16:22:33;3.47;;;2.42;;
61330;SDS011;57640;52.472;-1.950;2023-05-02T16:25:38;3.00;;;2.25;;
61330;SDS011;57640;52.472;-1.950;2023-05-02T16:28:43;3.78;;;2.38;;
61330;SDS011;57640;52.472;-1.950;2023-05-02T16:31:49;3.50;;;2.65;;
61330;SDS011;57640;52.472;-1.950;2023-05-02T16:34:54;2.70;;;2.35;;
61330;SDS011;57640;52.472;-1.950;2023-05-02T16:38:02;4.22;;;2.70;;
61330;SDS011;57640;52.472;-1.950;2023-05-02T16:41:08;4.07;;;2.92;;
61330;SDS011;57640;52.472;-1.950;2023-05-02T16:44:13;3.85;;;2.72;;
61330;SDS011;57640;52.472;-1.950;2023-05-02T16:47:19;3.33;;;2.45;;
61330;SDS011;57640;52.472;-1.950;2023-05-02T16:50:25;3.65;;;2.80;;
61330;SDS011;57640;52.472;-1.950;2023-05-02T16:53:33;4.28;;;2.78;;
61330;SDS011;57640;52.472;-1.950;2023-05-02T16:56:38;5.18;;;2.83;;
61330;SDS011;57640;52.472;-1.950;2023-05-02T16:59:44;4.95;;;2.95;;
61330;SDS011;57640;52.472;-1.950;2023-05-02T17:02:49;5.25;;;3.10;;
61330;SDS011;57640;52.472;-1.950;2023-05-02T17:09:06;4.38;;;3.20;;
61330;SDS011;57640;52.472;-1.950;2023-05-02T17:12:11;5.35;;;3.20;;
61330;SDS011;57640;52.472;-1.950;2023-05-02T17:15:23;4.40;;;3.13;;
61330;SDS011;57640;52.472;-1.950;2023-05-02T17:18:29;5.72;;;3.65;;
61330;SDS011;57640;52.472;-1.950;2023-05-02T17:21:35;3.90;;;3.17;;
61330;SDS011;57640;52.472;-1.950;2023-05-02T17:24:43;5.07;;;3.70;;
61330;SDS011;57640;52.472;-1.950;2023-05-02T17:27:50;5.30;;;3.55;;
61330;SDS011;57640;52.472;-1.950;2023-05-02T17:30:56;4.68;;;3.40;;
61330;SDS011;57640;52.472;-1.950;2023-05-02T17:34:01;6.10;;;3.60;;
61330;SDS011;57640;52.472;-1.950;2023-05-02T17:37:07;9.77;;;3.60;;
61330;SDS011;57640;52.472;-1.950;2023-05-02T17:40:15;11.02;;;4.22;;
61330;SDS011;57640;52.472;-1.950;2023-05-02T17:43:20;7.28;;;3.72;;
61330;SDS011;57640;52.472;-1.950;2023-05-02T17:46:25;6.50;;;4.03;;
61330;SDS011;57640;52.472;-1.950;2023-05-02T17:49:32;6.57;;;4.03;;
61330;SDS011;57640;52.472;-1.950;2023-05-02T17:52:41;6.00;;;4.20;;
61330;SDS011;57640;52.472;-1.950;2023-05-02T17:55:49;6.30;;;4.10;;
61330;SDS011;57640;52.472;-1.950;2023-05-02T17:58:55;4.88;;;3.95;;
61330;SDS011;57640;52.472;-1.950;2023-05-02T18:02:01;6.75;;;4.50;;
61330;SDS011;57640;52.472;-1.950;2023-05-02T18:05:06;6.53;;;4.20;;
61330;SDS011;57640;52.472;-1.950;2023-05-02T18:08:11;6.28;;;4.15;;
61330;SDS011;57640;52.472;-1.950;2023-05-02T18:11:20;6.38;;;4.22;;
61330;SDS011;57640;52.472;-1.950;2023-05-02T18:14:28;6.50;;;4.22;;
61330;SDS011;57640;52.472;-1.950;2023-05-02T18:17:33;7.13;;;4.53;;
61330;SDS011;57640;52.472;-1.950;2023-05-02T18:20:39;5.95;;;4.20;;
61330;SDS011;57640;52.472;-1.950;2023-05-02T18:23:44;6.90;;;3.72;;
61330;SDS011;57640;52.472;-1.950;2023-05-02T18:26:52;6.82;;;3.97;;
61330;SDS011;57640;52.472;-1.950;2023-05-02T18:29:58;5.95;;;4.18;;
61330;SDS011;57640;52.472;-1.950;2023-05-02T18:33:04;5.28;;;4.00;;
61330;SDS011;57640;52.472;-1.950;2023-05-02T18:36:09;5.85;;;4.10;;
61330;SDS011;57640;52.472;-1.950;2023-05-02T18:39:15;7.80;;;3.70;;
61330;SDS011;57640;52.472;-1.950;2023-05-02T18:42:25;7.15;;;3.92;;
61330;SDS011;57640;52.472;-1.950;2023-05-02T18:45:31;7.95;;;4.50;;
61330;SDS011;57640;52.472;-1.950;2023-05-02T18:48:37;7.57;;;5.07;;
61330;SDS011;57640;52.472;-1.950;2023-05-02T18:51:42;7.82;;;4.75;;
61330;SDS011;57640;52.472;-1.950;2023-05-02T18:54:47;7.18;;;4.57;;
61330;SDS011;57640;52.472;-1.950;2023-05-02T18:57:55;6.40;;;4.20;;
61330;SDS011;57640;52.472;-1.950;2023-05-02T19:01:09;7.75;;;4.45;;
61330;SDS011;57640;52.472;-1.950;2023-05-02T19:04:15;5.97;;;4.55;;
61330;SDS011;57640;52.472;-1.950;2023-05-02T19:07:21;5.53;;;4.07;;